»·PEaware :: FFT791 KDEN-KPDX

FFT791 :: KDEN-KPDX

FLIGHT INFORMATION

Flight Status: Arrived
Operator:
Frontier Airlines
More flights by this operator :: More flights under this callsign
Pilot: Merv A. (1555)
Aircraft: AIRBUS A320
(A320)
More flights by this aircraft type
Origin: KDEN Denver Intl
United States
Destination: KPDX Portland Intl
United States
More flights between these airports :: More routes between these airports
Route: ZIMMR2 CHNGY BOI J15 IMB JOTBA HHOOD4
File this flight plan on PilotEdge
Remarks: RMK / SIMBRIEF + cust time
Altitude:
(Current/Filed)
34,000ft
Speed:
(Current/Filed)
455kts
Departed: 04-Apr-21 05:39 PM
Arrived: 04-Apr-21 08:04 PM
Distance/Time
Traveled:
859nm/2:25
Distance/Time
To Go:
Arrived

Flight Plot

Page will automatically refresh every two minutes.

Flight plan parsing failed; only flown route is shown


Map Options




Map Legend


Flown Route
Filed Route
Departure Airport
Arrival Airport
Navaid (VOR, NDB)
Fix

Horizontal Profiles

Position Reports

Time Latitude Longitude Heading Altitude Ground
Speed
04-Apr-21 16:51 39.853348 -104.676203 0 5448ft 0kts
04-Apr-21 16:52 39.853348 -104.676203 0 5448ft 0kts
04-Apr-21 16:53 39.853348 -104.676203 0 5448ft 0kts
04-Apr-21 16:54 39.853348 -104.676203 0 5448ft 0kts
04-Apr-21 16:55 39.853348 -104.676203 0 5448ft 0kts
04-Apr-21 16:56 39.853348 -104.676203 0 5448ft 0kts
04-Apr-21 16:57 39.853348 -104.676203 0 5448ft 0kts
04-Apr-21 16:58 39.853348 -104.676203 0 5448ft 0kts
04-Apr-21 16:59 39.853348 -104.676203 0 5448ft 0kts
04-Apr-21 17:00 39.853348 -104.676203 0 5448ft 0kts
04-Apr-21 17:01 39.853348 -104.676203 0 5448ft 0kts
04-Apr-21 17:02 39.853348 -104.676203 0 5448ft 0kts
04-Apr-21 17:03 39.853348 -104.676203 0 5448ft 0kts
04-Apr-21 17:04 39.853348 -104.676203 0 5448ft 0kts
04-Apr-21 17:05 39.853348 -104.676203 0 5448ft 0kts
04-Apr-21 17:06 39.853348 -104.676203 0 5448ft 0kts
04-Apr-21 17:07 39.853348 -104.676203 0 5448ft 0kts
04-Apr-21 17:08 39.853348 -104.676203 0 5448ft 0kts
04-Apr-21 17:09 39.853348 -104.676203 0 5448ft 0kts
04-Apr-21 17:10 39.853348 -104.676203 0 5448ft 0kts
04-Apr-21 17:11 39.853348 -104.676203 0 5448ft 0kts
04-Apr-21 17:12 39.853348 -104.676203 0 5448ft 0kts
04-Apr-21 17:13 39.853348 -104.676203 0 5448ft 0kts
04-Apr-21 17:14 39.853348 -104.676203 0 5448ft 0kts
04-Apr-21 17:15 39.853348 -104.676203 0 5448ft 0kts
04-Apr-21 17:16 39.853348 -104.676203 0 5448ft 0kts
04-Apr-21 17:17 39.853348 -104.676203 0 5448ft 0kts
04-Apr-21 17:18 39.853348 -104.676203 0 5448ft 0kts
04-Apr-21 17:19 39.853348 -104.676203 0 5448ft 0kts
04-Apr-21 17:20 39.853348 -104.676203 0 5448ft 0kts
04-Apr-21 17:21 39.853348 -104.676203 0 5448ft 0kts
04-Apr-21 17:22 39.853348 -104.676203 0 5448ft 0kts
04-Apr-21 17:23 39.853348 -104.676203 0 5448ft 0kts
04-Apr-21 17:24 39.853337 -104.676203 0 5448ft 1kts
04-Apr-21 17:25 39.852826 -104.675894 270 5448ft 0kts
04-Apr-21 17:26 39.852826 -104.675894 270 5448ft 0kts
04-Apr-21 17:27 39.852826 -104.675894 270 5448ft 0kts
04-Apr-21 17:28 39.852826 -104.675895 270 5448ft 0kts
04-Apr-21 17:29 39.852827 -104.676189 270 5448ft 3kts
04-Apr-21 17:30 39.852842 -104.678561 270 5448ft 7kts
04-Apr-21 17:31 39.852854 -104.680650 270 5448ft 8kts
04-Apr-21 17:32 39.852940 -104.681519 298 5448ft 1kts
04-Apr-21 17:33 39.853012 -104.683821 233 5448ft 8kts
04-Apr-21 17:34 39.849877 -104.684083 180 5448ft 14kts
04-Apr-21 17:35 39.845506 -104.684126 180 5448ft 14kts
04-Apr-21 17:36 39.841981 -104.684173 180 5448ft 5kts
04-Apr-21 17:37 39.840649 -104.684655 273 5448ft 5kts
04-Apr-21 17:38 39.840850 -104.716803 272 5492ft 190kts
04-Apr-21 17:39 39.860978 -104.777971 308 7194ft 211kts
04-Apr-21 17:40 39.900916 -104.849130 305 8377ft 273kts
04-Apr-21 17:41 39.934721 -104.940610 272 10650ft 296kts
04-Apr-21 17:42 39.935363 -105.057880 272 12573ft 336kts
04-Apr-21 17:43 39.938441 -105.180175 271 15272ft 341kts
04-Apr-21 17:44 39.945674 -105.305002 275 17729ft 347kts
04-Apr-21 17:45 39.955675 -105.431179 275 19796ft 355kts
04-Apr-21 17:46 39.965833 -105.560796 275 21564ft 366kts
04-Apr-21 17:47 39.975284 -105.694924 274 23154ft 377kts
04-Apr-21 17:48 39.982135 -105.833184 274 24615ft 387kts
04-Apr-21 17:49 39.989130 -105.974523 274 26014ft 394kts
04-Apr-21 17:50 39.996043 -106.118554 274 27298ft 401kts
04-Apr-21 17:51 40.002878 -106.264704 274 28440ft 407kts
04-Apr-21 17:52 40.009609 -106.412701 274 29705ft 407kts
04-Apr-21 17:53 40.045894 -106.549262 299 31028ft 403kts
04-Apr-21 17:54 40.099840 -106.672509 297 32256ft 398kts
04-Apr-21 17:55 40.153096 -106.798678 297 33384ft 394kts
04-Apr-21 17:56 40.205908 -106.923481 297 34175ft 394kts
04-Apr-21 17:57 40.258881 -107.049258 296 34157ft 394kts
04-Apr-21 17:58 40.312708 -107.177784 296 34153ft 409kts
04-Apr-21 17:59 40.367709 -107.309442 296 34168ft 415kts
04-Apr-21 18:00 40.422786 -107.441934 296 34144ft 412kts
04-Apr-21 18:01 40.477474 -107.574060 296 34061ft 411kts
04-Apr-21 18:02 40.532121 -107.706708 296 34057ft 412kts
04-Apr-21 18:03 40.586533 -107.839321 296 34122ft 412kts
04-Apr-21 18:04 40.640946 -107.972529 295 34143ft 412kts
04-Apr-21 18:05 40.694843 -108.105113 295 34141ft 411kts
04-Apr-21 18:06 40.748627 -108.237961 295 34078ft 410kts
04-Apr-21 18:07 40.802031 -108.370516 295 34086ft 409kts
04-Apr-21 18:08 40.855470 -108.503671 295 34053ft 409kts
04-Apr-21 18:09 40.908453 -108.636399 295 34077ft 408kts
04-Apr-21 18:10 40.961166 -108.768969 295 34039ft 408kts
04-Apr-21 18:11 41.013988 -108.902296 295 34082ft 407kts
04-Apr-21 18:12 41.066252 -109.034944 295 34065ft 407kts
04-Apr-21 18:13 41.118421 -109.168003 295 34094ft 406kts
04-Apr-21 18:14 41.170538 -109.301347 295 34067ft 406kts
04-Apr-21 18:15 41.222159 -109.434139 295 34093ft 405kts
04-Apr-21 18:16 41.273788 -109.567552 295 34053ft 405kts
04-Apr-21 18:17 41.325158 -109.700799 294 34079ft 404kts
04-Apr-21 18:18 41.376303 -109.834298 294 34063ft 404kts
04-Apr-21 18:19 41.427116 -109.967416 294 34083ft 404kts
04-Apr-21 18:20 41.477997 -110.101170 294 34181ft 402kts
04-Apr-21 18:21 41.528239 -110.234093 294 34187ft 402kts
04-Apr-21 18:23 41.578639 -110.367878 294 34179ft 402kts
04-Apr-21 18:24 41.628697 -110.501502 294 34177ft 401kts
04-Apr-21 18:25 41.678351 -110.634552 294 34133ft 401kts
04-Apr-21 18:26 41.728096 -110.768585 294 34134ft 400kts
04-Apr-21 18:27 41.777478 -110.902200 293 34100ft 400kts
04-Apr-21 18:28 41.826616 -111.035702 293 34092ft 399kts
04-Apr-21 18:29 41.875462 -111.169137 293 34099ft 398kts
04-Apr-21 18:30 41.924111 -111.302606 293 34074ft 398kts
04-Apr-21 18:31 41.972357 -111.435690 293 34066ft 396kts
04-Apr-21 18:32 42.020638 -111.569384 292 34041ft 394kts
04-Apr-21 18:33 42.068316 -111.702141 292 33985ft 394kts
04-Apr-21 18:34 42.115837 -111.834992 292 33986ft 395kts
04-Apr-21 18:35 42.163303 -111.968279 292 34019ft 395kts
04-Apr-21 18:36 42.210703 -112.102186 292 34045ft 395kts
04-Apr-21 18:37 42.257738 -112.235582 292 34055ft 394kts
04-Apr-21 18:38 42.304650 -112.369321 292 34029ft 393kts
04-Apr-21 18:39 42.351192 -112.502653 292 33970ft 392kts
04-Apr-21 18:39 42.389797 -112.613640 291 33959ft 391kts
04-Apr-21 18:41 42.443688 -112.769462 291 33954ft 391kts
04-Apr-21 18:41 42.481813 -112.880167 291 34021ft 389kts
04-Apr-21 18:43 42.535027 -113.035525 291 34030ft 389kts
04-Apr-21 18:44 42.580373 -113.168485 290 34016ft 387kts
04-Apr-21 18:45 42.625468 -113.301516 290 33962ft 387kts
04-Apr-21 18:46 42.670393 -113.434612 290 33932ft 387kts
04-Apr-21 18:46 42.707649 -113.545387 290 33963ft 386kts
04-Apr-21 18:47 42.752115 -113.678328 290 33997ft 386kts
04-Apr-21 18:48 42.796490 -113.811664 290 33970ft 387kts
04-Apr-21 18:50 42.847972 -113.967153 290 33976ft 386kts
04-Apr-21 18:51 42.891859 -114.100224 289 34025ft 384kts
04-Apr-21 18:51 42.928159 -114.211117 289 33985ft 385kts
04-Apr-21 18:52 42.971846 -114.344814 289 33976ft 384kts
04-Apr-21 18:53 43.015029 -114.477864 289 33958ft 384kts
04-Apr-21 18:54 43.058125 -114.611210 288 33996ft 383kts
04-Apr-21 18:55 43.101300 -114.745384 288 33992ft 384kts
04-Apr-21 18:56 43.143969 -114.878745 288 34026ft 383kts
04-Apr-21 18:57 43.186675 -115.013002 288 33991ft 383kts
04-Apr-21 18:58 43.228904 -115.146242 288 33991ft 382kts
04-Apr-21 18:59 43.271130 -115.280358 287 33937ft 383kts
04-Apr-21 19:00 43.313170 -115.414447 287 33956ft 382kts
04-Apr-21 19:01 43.355131 -115.548999 287 33918ft 383kts
04-Apr-21 19:02 43.396855 -115.683266 287 33920ft 383kts
04-Apr-21 19:03 43.438528 -115.818370 287 33959ft 382kts
04-Apr-21 19:04 43.479930 -115.953180 286 33966ft 382kts
04-Apr-21 19:05 43.521236 -116.088414 286 33933ft 383kts
04-Apr-21 19:06 43.562999 -116.223128 288 33920ft 384kts
04-Apr-21 19:07 43.607585 -116.357294 288 33921ft 384kts
04-Apr-21 19:08 43.651818 -116.491517 288 33934ft 384kts
04-Apr-21 19:09 43.695958 -116.626068 287 33948ft 384kts
04-Apr-21 19:10 43.739758 -116.760266 287 33962ft 384kts
04-Apr-21 19:11 43.783506 -116.895015 287 33975ft 383kts
04-Apr-21 19:12 43.826963 -117.029471 287 33905ft 383kts
04-Apr-21 19:13 43.870367 -117.164509 287 33889ft 383kts
04-Apr-21 19:14 43.913727 -117.299971 287 33893ft 384kts
04-Apr-21 19:15 43.956798 -117.435348 287 33930ft 384kts
04-Apr-21 19:16 43.999850 -117.571343 286 33918ft 385kts
04-Apr-21 19:17 44.042704 -117.707462 286 33929ft 385kts
04-Apr-21 19:18 44.085611 -117.844395 286 33946ft 385kts
04-Apr-21 19:19 44.128181 -117.980993 286 33959ft 385kts
04-Apr-21 19:20 44.170718 -118.118263 286 33977ft 385kts
04-Apr-21 19:21 44.212907 -118.255020 286 33992ft 385kts
04-Apr-21 19:22 44.255145 -118.392654 286 34001ft 385kts
04-Apr-21 19:23 44.296857 -118.529486 286 34009ft 385kts
04-Apr-21 19:24 44.338705 -118.667308 286 34040ft 384kts
04-Apr-21 19:25 44.380098 -118.804441 286 34046ft 384kts
04-Apr-21 19:26 44.421507 -118.942428 286 34048ft 384kts
04-Apr-21 19:27 44.462704 -119.080451 286 34055ft 384kts
04-Apr-21 19:28 44.503625 -119.218229 285 34062ft 384kts
04-Apr-21 19:29 44.544464 -119.356491 285 34100ft 382kts
04-Apr-21 19:30 44.584931 -119.494195 285 34072ft 382kts
04-Apr-21 19:31 44.625262 -119.632200 285 34061ft 382kts
04-Apr-21 19:32 44.679854 -119.762462 303 34046ft 402kts
04-Apr-21 19:33 44.756086 -119.876995 302 34110ft 400kts
04-Apr-21 19:34 44.830545 -119.993196 303 34125ft 400kts
04-Apr-21 19:35 44.904955 -120.108650 302 32256ft 393kts
04-Apr-21 19:36 44.977332 -120.221732 302 30072ft 383kts
04-Apr-21 19:37 45.047479 -120.331721 301 27922ft 373kts
04-Apr-21 19:38 45.116340 -120.440155 302 25689ft 366kts
04-Apr-21 19:39 45.178878 -120.549556 290 24148ft 350kts
04-Apr-21 19:40 45.224440 -120.669218 289 22705ft 334kts
04-Apr-21 19:41 45.267470 -120.780681 289 21487ft 312kts
04-Apr-21 19:42 45.308501 -120.887990 289 20230ft 308kts
04-Apr-21 19:43 45.349057 -120.994144 289 18933ft 302kts
04-Apr-21 19:44 45.388593 -121.098210 289 17595ft 295kts
04-Apr-21 19:45 45.427134 -121.200443 286 16046ft 288kts
04-Apr-21 19:46 45.449171 -121.307218 279 14722ft 280kts
04-Apr-21 19:47 45.470071 -121.413449 281 13396ft 276kts
04-Apr-21 19:48 45.490673 -121.517601 282 12079ft 271kts
04-Apr-21 19:49 45.511340 -121.620693 284 10834ft 285kts
04-Apr-21 19:50 45.530166 -121.726094 275 9697ft 260kts
04-Apr-21 19:51 45.533470 -121.828479 273 8162ft 264kts
04-Apr-21 19:52 45.537197 -121.930783 273 6681ft 252kts
04-Apr-21 19:53 45.541703 -122.023853 273 6644ft 224kts
04-Apr-21 19:54 45.515017 -122.095125 237 5874ft 210kts
04-Apr-21 19:55 45.482401 -122.161116 238 5665ft 194kts
04-Apr-21 19:56 45.476661 -122.231875 280 5149ft 180kts
04-Apr-21 19:57 45.482553 -122.301016 278 4072ft 177kts
04-Apr-21 19:58 45.504203 -122.363510 298 3223ft 172kts
04-Apr-21 19:59 45.526846 -122.421494 299 2340ft 165kts
04-Apr-21 20:00 45.547064 -122.473249 299 1548ft 139kts
04-Apr-21 20:01 45.564666 -122.518430 298 877ft 124kts
04-Apr-21 20:02 45.581226 -122.560689 299 193ft 121kts
04-Apr-21 20:03 45.592036 -122.589247 279 44ft 30kts
04-Apr-21 20:04 45.592110 -122.591223 269 44ft 0kts
04-Apr-21 20:05 45.592107 -122.592233 270 44ft 6kts
04-Apr-21 20:06 45.592870 -122.596009 299 44ft 12kts
04-Apr-21 20:07 45.592102 -122.598463 209 44ft 9kts
04-Apr-21 20:08 45.590284 -122.596516 119 44ft 7kts
04-Apr-21 20:09 45.590511 -122.595030 28 44ft 1kts
04-Apr-21 20:10 45.590511 -122.595030 28 44ft 0kts
04-Apr-21 20:11 45.590511 -122.595030 28 44ft 0kts
04-Apr-21 20:12 45.590511 -122.595030 28 44ft 0kts

Navigation Log

Ident Type
Flight plan parsing failed, navigation log unavailable